createdAt,value
2023-12-27T00:00:58.036Z,1.17
2023-12-27T00:03:24.923Z,0.80
2023-12-27T00:05:51.844Z,0.83
2023-12-27T00:08:18.597Z,1.10
2023-12-27T00:10:45.316Z,1.00
2023-12-27T00:13:12.136Z,1.10
2023-12-27T00:15:38.895Z,1.10
2023-12-27T00:18:05.704Z,1.10
2023-12-27T00:20:32.576Z,0.90
2023-12-27T00:22:59.389Z,1.27
2023-12-27T00:25:26.122Z,1.17
2023-12-27T00:27:52.747Z,0.90
2023-12-27T00:30:19.725Z,1.00
2023-12-27T00:32:46.614Z,1.00
2023-12-27T00:35:13.522Z,1.00
2023-12-27T00:37:40.291Z,1.27
2023-12-27T00:40:08.477Z,1.13
2023-12-27T00:42:35.417Z,0.97
2023-12-27T00:45:02.198Z,1.00
2023-12-27T00:47:31.451Z,1.10
2023-12-27T00:49:58.550Z,1.10
2023-12-27T00:52:25.200Z,0.97
2023-12-27T00:54:51.911Z,0.93
2023-12-27T00:57:18.532Z,1.20
2023-12-27T00:59:47.069Z,1.03
2023-12-27T01:02:13.816Z,1.00
2023-12-27T01:04:40.705Z,0.90
2023-12-27T01:07:07.397Z,1.20
2023-12-27T01:09:34.184Z,1.17
2023-12-27T01:12:00.884Z,1.10
2023-12-27T01:14:27.469Z,1.13
2023-12-27T01:16:54.121Z,0.90
2023-12-27T01:19:20.848Z,0.90
2023-12-27T01:21:47.642Z,1.17
2023-12-27T01:24:14.325Z,1.23
2023-12-27T01:26:41.166Z,0.90
2023-12-27T01:29:07.838Z,1.00
2023-12-27T01:31:34.973Z,1.00
2023-12-27T01:34:08.866Z,0.90
2023-12-27T01:36:39.644Z,1.00
2023-12-27T01:39:07.369Z,1.10
2023-12-27T01:41:34.164Z,1.13
2023-12-27T01:44:01.085Z,1.07
2023-12-27T01:46:28.796Z,1.30
2023-12-27T01:48:56.036Z,0.90
2023-12-27T01:51:22.829Z,1.07
2023-12-27T01:53:50.408Z,1.00
2023-12-27T01:56:17.217Z,0.93
2023-12-27T01:58:44.108Z,0.70
2023-12-27T02:01:10.853Z,1.10
2023-12-27T02:03:37.707Z,0.90
2023-12-27T02:06:05.206Z,1.30
2023-12-27T02:08:32.263Z,0.97
2023-12-27T02:10:58.930Z,1.00
2023-12-27T02:13:25.620Z,1.17
2023-12-27T02:15:53.024Z,1.00
2023-12-27T02:18:20.913Z,1.10
2023-12-27T02:20:48.378Z,1.13
2023-12-27T02:23:18.704Z,1.20
2023-12-27T02:25:46.427Z,1.00
2023-12-27T02:28:13.272Z,1.30
2023-12-27T02:30:40.610Z,1.00
2023-12-27T02:33:07.649Z,0.90
2023-12-27T02:35:34.597Z,0.93
2023-12-27T02:38:01.501Z,1.07
2023-12-27T02:40:28.332Z,0.90
2023-12-27T02:42:55.012Z,1.10
2023-12-27T02:45:21.706Z,1.00
2023-12-27T02:47:48.564Z,0.83
2023-12-27T02:50:15.366Z,1.03
2023-12-27T02:52:41.997Z,0.90
2023-12-27T02:55:08.920Z,1.27
2023-12-27T02:57:35.978Z,1.17
2023-12-27T03:00:04.399Z,0.77
2023-12-27T03:02:31.130Z,0.90
2023-12-27T03:04:57.829Z,0.90
2023-12-27T03:07:24.421Z,0.70
2023-12-27T03:09:51.095Z,0.77
2023-12-27T03:12:17.736Z,1.00
2023-12-27T03:14:44.376Z,1.07
2023-12-27T03:17:10.933Z,1.03
2023-12-27T03:19:38.364Z,0.60
2023-12-27T03:22:04.960Z,0.90
2023-12-27T03:24:31.736Z,0.90
2023-12-27T03:26:58.566Z,1.13
2023-12-27T03:29:25.332Z,1.00
2023-12-27T03:31:52.078Z,1.00
2023-12-27T03:34:19.066Z,0.83
2023-12-27T03:36:45.821Z,1.23
2023-12-27T03:39:12.481Z,1.33
2023-12-27T03:41:39.332Z,1.03
2023-12-27T03:44:05.903Z,1.10
2023-12-27T03:46:32.524Z,0.80
2023-12-27T03:48:59.367Z,0.70
2023-12-27T03:51:26.317Z,1.00
2023-12-27T03:53:53.178Z,0.90
2023-12-27T03:56:19.767Z,1.20
2023-12-27T03:58:46.405Z,1.17
2023-12-27T04:01:13.170Z,0.90
2023-12-27T04:03:41.712Z,0.70
2023-12-27T04:06:08.960Z,0.87
2023-12-27T04:08:35.691Z,0.83
2023-12-27T04:11:02.369Z,1.13
2023-12-27T04:13:29.043Z,0.90
2023-12-27T04:15:55.998Z,1.10
2023-12-27T04:18:22.771Z,0.87
2023-12-27T04:20:49.539Z,0.83
2023-12-27T04:23:16.272Z,0.80
2023-12-27T04:25:43.022Z,0.93
2023-12-27T04:28:09.723Z,0.90
2023-12-27T04:30:36.421Z,1.00
2023-12-27T04:33:03.473Z,0.90
2023-12-27T04:35:30.121Z,0.80
2023-12-27T04:37:58.615Z,1.10
2023-12-27T04:40:26.701Z,1.10
2023-12-27T04:42:53.973Z,0.70
2023-12-27T04:45:20.705Z,0.97
2023-12-27T04:47:47.389Z,1.07
2023-12-27T04:50:14.316Z,1.03
2023-12-27T04:52:41.052Z,0.80
2023-12-27T04:55:08.393Z,1.00
2023-12-27T04:57:35.077Z,1.10
2023-12-27T05:00:01.895Z,1.00
2023-12-27T05:02:28.589Z,1.27
2023-12-27T05:04:55.286Z,0.80
2023-12-27T05:07:21.977Z,0.80
2023-12-27T05:09:48.653Z,0.90
2023-12-27T05:12:15.314Z,0.90
2023-12-27T05:14:41.938Z,1.27
2023-12-27T05:17:08.553Z,1.13
2023-12-27T05:19:39.000Z,0.80
2023-12-27T05:22:06.009Z,0.90
2023-12-27T05:24:32.745Z,1.00
2023-12-27T05:26:59.439Z,0.97
2023-12-27T05:29:28.603Z,0.87
2023-12-27T05:31:56.517Z,1.00
2023-12-27T05:34:23.358Z,1.00
2023-12-27T05:36:49.992Z,0.90
2023-12-27T05:39:17.114Z,0.80
2023-12-27T05:41:43.821Z,1.00
2023-12-27T05:44:10.465Z,1.10
2023-12-27T05:46:37.117Z,0.60
2023-12-27T05:49:04.063Z,0.80
2023-12-27T05:51:30.907Z,0.80
2023-12-27T05:53:57.905Z,0.87
2023-12-27T05:56:24.649Z,0.90
2023-12-27T05:58:51.273Z,1.10
2023-12-27T06:01:20.174Z,0.87
2023-12-27T06:03:47.722Z,0.80
2023-12-27T06:06:14.441Z,1.03
2023-12-27T06:08:41.091Z,0.80
2023-12-27T06:11:12.945Z,0.80
2023-12-27T06:13:40.707Z,0.97
2023-12-27T06:16:07.907Z,0.80
2023-12-27T06:18:34.908Z,0.80
2023-12-27T06:21:01.962Z,0.70
2023-12-27T06:23:29.858Z,0.80
2023-12-27T06:25:56.915Z,0.80
2023-12-27T06:28:23.624Z,0.97
2023-12-27T06:30:50.372Z,0.90
2023-12-27T06:33:17.216Z,0.60
2023-12-27T06:35:44.021Z,0.73
2023-12-27T06:38:10.775Z,0.83
2023-12-27T06:40:37.482Z,0.80
2023-12-27T06:43:04.297Z,1.03
2023-12-27T06:45:31.380Z,0.70
2023-12-27T06:47:58.175Z,0.63
2023-12-27T06:50:25.042Z,0.80
2023-12-27T06:52:52.051Z,1.00
2023-12-27T06:55:18.813Z,1.20
2023-12-27T06:57:45.473Z,0.90
2023-12-27T07:00:12.835Z,0.90
2023-12-27T07:02:41.050Z,0.70
2023-12-27T07:05:08.957Z,0.80
2023-12-27T07:07:36.071Z,0.80
2023-12-27T07:10:02.755Z,1.07
2023-12-27T07:12:29.705Z,0.90
2023-12-27T07:14:56.615Z,0.90
2023-12-27T07:17:24.397Z,0.70
2023-12-27T07:19:51.344Z,1.00
2023-12-27T07:22:18.878Z,0.90
2023-12-27T07:24:45.553Z,0.80
2023-12-27T07:27:12.364Z,0.77
2023-12-27T07:29:39.043Z,0.97
2023-12-27T07:32:06.757Z,0.90
2023-12-27T07:34:34.256Z,0.80
2023-12-27T07:37:01.033Z,1.07
2023-12-27T07:39:27.884Z,0.90
2023-12-27T07:41:54.616Z,0.80
2023-12-27T07:44:22.192Z,0.87
2023-12-27T07:46:48.808Z,0.70
2023-12-27T07:49:15.580Z,0.73
2023-12-27T07:51:42.367Z,0.70
2023-12-27T07:54:09.153Z,0.90
2023-12-27T07:56:36.289Z,1.03
2023-12-27T07:59:04.937Z,0.97
2023-12-27T08:01:33.069Z,0.80
2023-12-27T08:04:00.448Z,1.03
2023-12-27T08:06:27.565Z,0.70
2023-12-27T08:08:54.713Z,1.00
2023-12-27T08:11:22.755Z,1.00
2023-12-27T08:13:49.360Z,0.50
2023-12-27T08:16:17.596Z,0.80
2023-12-27T08:18:44.369Z,0.87
2023-12-27T08:21:11.141Z,0.70
2023-12-27T08:23:38.523Z,0.80
2023-12-27T08:26:09.286Z,0.83
2023-12-27T08:28:36.890Z,1.20
2023-12-27T08:31:07.938Z,0.80
2023-12-27T08:33:38.061Z,0.90
2023-12-27T08:36:05.541Z,0.73
2023-12-27T08:38:33.694Z,0.90
2023-12-27T08:41:00.490Z,1.27
2023-12-27T08:43:30.648Z,1.10
2023-12-27T08:45:57.600Z,0.70
2023-12-27T08:48:24.568Z,0.80
2023-12-27T08:50:52.602Z,0.97
2023-12-27T08:53:19.380Z,0.80
2023-12-27T08:55:46.022Z,0.90
2023-12-27T08:58:13.619Z,1.23
2023-12-27T09:00:42.072Z,0.90
2023-12-27T09:03:11.704Z,0.90
2023-12-27T09:05:38.375Z,0.80
2023-12-27T09:08:05.252Z,0.80
2023-12-27T09:10:31.871Z,0.70
2023-12-27T09:12:58.523Z,1.10
2023-12-27T09:15:26.999Z,0.90
2023-12-27T09:17:54.382Z,0.70
2023-12-27T09:20:21.095Z,0.73
2023-12-27T09:22:47.753Z,0.80
2023-12-27T09:25:14.584Z,1.00
2023-12-27T09:27:41.316Z,0.90
2023-12-27T09:30:08.387Z,1.10
2023-12-27T09:32:35.280Z,1.47
2023-12-27T09:35:02.958Z,0.97
2023-12-27T09:37:30.503Z,1.10
2023-12-27T09:39:57.258Z,1.43
2023-12-27T09:42:24.079Z,1.10
2023-12-27T09:44:53.206Z,1.13
2023-12-27T09:47:22.011Z,1.20
2023-12-27T09:49:48.768Z,1.47
2023-12-27T09:52:15.914Z,1.00
2023-12-27T09:54:42.576Z,1.10
2023-12-27T09:57:09.366Z,0.80
2023-12-27T09:59:41.858Z,1.10
2023-12-27T10:02:18.330Z,1.00
2023-12-27T10:05:20.875Z,1.00
2023-12-27T10:07:48.819Z,2.07
2023-12-27T10:10:21.706Z,1.07
2023-12-27T10:12:56.199Z,1.10
2023-12-27T10:15:22.973Z,1.10
2023-12-27T10:17:49.622Z,1.10
2023-12-27T10:20:34.233Z,1.10
2023-12-27T10:23:01.918Z,1.17
2023-12-27T10:25:30.045Z,0.97
2023-12-27T10:27:58.379Z,1.40
2023-12-27T10:30:25.939Z,1.03
2023-12-27T10:33:00.222Z,1.10
2023-12-27T10:35:28.970Z,1.37
2023-12-27T10:38:07.058Z,1.20
2023-12-27T10:40:37.662Z,1.20
2023-12-27T10:43:04.684Z,1.80
2023-12-27T10:45:31.411Z,1.13
2023-12-27T10:48:01.204Z,1.00
2023-12-27T10:50:29.902Z,1.47
2023-12-27T10:53:07.921Z,1.13
2023-12-27T10:55:36.136Z,1.20
2023-12-27T10:58:06.574Z,1.43
2023-12-27T11:00:34.886Z,1.30
2023-12-27T11:03:01.899Z,1.30
2023-12-27T11:05:31.261Z,1.37
2023-12-27T11:08:00.044Z,1.20
2023-12-27T11:10:30.963Z,1.20
2023-12-27T11:13:00.264Z,0.93
2023-12-27T11:15:31.030Z,1.40
2023-12-27T11:18:01.732Z,1.00
2023-12-27T11:20:29.703Z,1.40
2023-12-27T11:22:56.553Z,1.10
2023-12-27T11:25:23.355Z,1.20
2023-12-27T11:27:50.186Z,1.00
2023-12-27T11:30:17.097Z,1.40
2023-12-27T11:32:44.359Z,1.30
2023-12-27T11:35:25.022Z,1.10
2023-12-27T11:37:53.883Z,1.00
2023-12-27T11:40:36.307Z,1.40
2023-12-27T11:43:07.513Z,1.20
2023-12-27T11:46:03.662Z,1.27
2023-12-27T11:48:48.639Z,1.60
2023-12-27T11:51:37.464Z,1.23
2023-12-27T11:54:05.833Z,0.77
2023-12-27T11:56:37.235Z,1.23
2023-12-27T11:59:07.479Z,1.07
2023-12-27T12:01:36.428Z,1.10
2023-12-27T12:04:17.951Z,0.90
2023-12-27T12:06:57.000Z,1.43
2023-12-27T12:09:35.959Z,0.93
2023-12-27T12:12:24.364Z,1.17
2023-12-27T12:14:57.596Z,1.07
2023-12-27T12:17:27.586Z,1.20
2023-12-27T12:19:54.528Z,1.70
2023-12-27T12:22:21.248Z,1.80
2023-12-27T12:24:48.183Z,1.60
2023-12-27T12:27:24.790Z,1.80
2023-12-27T12:29:54.176Z,1.60
2023-12-27T12:32:21.183Z,2.30
2023-12-27T12:34:48.007Z,1.83
2023-12-27T12:37:15.642Z,2.10
2023-12-27T12:39:42.823Z,1.70
2023-12-27T12:42:09.515Z,1.50
2023-12-27T12:44:37.469Z,1.70
2023-12-27T12:47:05.014Z,1.40
2023-12-27T12:49:32.286Z,1.57
2023-12-27T12:52:06.202Z,1.47
2023-12-27T12:54:34.145Z,1.30
2023-12-27T12:57:01.759Z,2.00
2023-12-27T12:59:30.729Z,1.70
2023-12-27T13:01:57.583Z,1.33
2023-12-27T13:04:25.291Z,1.47
2023-12-27T13:07:04.942Z,1.70
2023-12-27T13:09:32.048Z,1.40
2023-12-27T13:11:59.050Z,1.40
2023-12-27T13:14:26.093Z,1.80
2023-12-27T13:16:53.574Z,1.43
2023-12-27T13:19:20.590Z,1.40
2023-12-27T13:21:47.529Z,1.40
2023-12-27T13:24:14.679Z,1.90
2023-12-27T13:26:41.399Z,1.33
2023-12-27T13:29:08.173Z,1.20
2023-12-27T13:31:34.957Z,1.73
2023-12-27T13:34:01.953Z,1.70
2023-12-27T13:36:29.611Z,1.93
2023-12-27T13:38:56.382Z,1.23
2023-12-27T13:41:23.004Z,1.40
2023-12-27T13:43:49.602Z,1.40
2023-12-27T13:46:16.401Z,1.47
2023-12-27T13:48:43.860Z,1.60
2023-12-27T13:51:10.728Z,1.43
2023-12-27T13:53:37.441Z,1.27
2023-12-27T13:56:05.704Z,1.10
2023-12-27T13:58:35.001Z,2.10
2023-12-27T14:01:02.029Z,1.70
2023-12-27T14:03:33.443Z,1.53
2023-12-27T14:06:00.533Z,1.40
2023-12-27T14:08:27.416Z,1.20
2023-12-27T14:10:55.150Z,1.50
2023-12-27T14:13:21.855Z,1.37
2023-12-27T14:15:48.625Z,1.40
2023-12-27T14:18:16.155Z,1.20
2023-12-27T14:20:43.579Z,1.47
2023-12-27T14:23:10.486Z,1.30
2023-12-27T14:25:37.157Z,1.00
2023-12-27T14:28:04.100Z,1.30
2023-12-27T14:33:00.157Z,1.03
2023-12-27T14:35:27.060Z,0.90
2023-12-27T14:37:55.037Z,1.20
2023-12-27T14:40:21.815Z,1.50
2023-12-27T14:42:49.078Z,0.90
2023-12-27T14:45:16.156Z,1.20
2023-12-27T14:47:43.274Z,1.20
2023-12-27T14:50:10.453Z,1.30
2023-12-27T14:52:38.432Z,1.87
2023-12-27T14:55:06.426Z,1.17
2023-12-27T14:57:34.835Z,1.13
2023-12-27T15:00:01.813Z,1.30
2023-12-27T15:02:28.782Z,1.13
2023-12-27T15:04:55.452Z,1.10
2023-12-27T15:07:22.153Z,1.30
2023-12-27T15:09:48.990Z,0.97
2023-12-27T15:12:15.708Z,1.40
2023-12-27T15:14:42.438Z,0.93
2023-12-27T15:17:09.150Z,1.10
2023-12-27T15:19:35.978Z,1.27
2023-12-27T15:22:04.063Z,1.53
2023-12-27T15:24:30.802Z,2.00
2023-12-27T15:26:57.455Z,1.80
2023-12-27T15:29:24.131Z,1.80
2023-12-27T15:31:50.791Z,1.50
2023-12-27T15:34:17.624Z,2.13
2023-12-27T15:36:44.346Z,1.57
2023-12-27T15:39:11.036Z,1.50
2023-12-27T15:41:37.861Z,1.33
2023-12-27T15:44:05.141Z,1.30
2023-12-27T15:46:31.955Z,0.97
2023-12-27T15:48:59.538Z,1.40
2023-12-27T15:51:41.786Z,1.10
2023-12-27T15:54:08.764Z,1.20
2023-12-27T15:56:38.980Z,1.00
2023-12-27T15:59:06.137Z,1.27
2023-12-27T16:01:36.573Z,1.20
2023-12-27T16:04:06.711Z,1.33
2023-12-27T16:06:36.730Z,1.30
2023-12-27T16:09:06.027Z,1.27
2023-12-27T16:11:32.753Z,1.43
2023-12-27T16:14:00.367Z,1.07
2023-12-27T16:16:27.379Z,1.20
2023-12-27T16:18:54.357Z,1.00
2023-12-27T16:21:21.755Z,1.53
2023-12-27T16:23:49.294Z,1.47
2023-12-27T16:26:18.509Z,1.03
2023-12-27T16:28:47.584Z,1.13
2023-12-27T16:31:14.304Z,1.20
2023-12-27T16:33:41.134Z,1.10
2023-12-27T16:36:08.652Z,1.53
2023-12-27T16:38:35.531Z,1.00
2023-12-27T16:41:04.827Z,1.30
2023-12-27T16:43:38.423Z,0.97
2023-12-27T16:46:07.517Z,1.07
2023-12-27T16:48:35.018Z,0.93
2023-12-27T16:51:02.012Z,1.20
2023-12-27T16:53:28.969Z,1.10
2023-12-27T16:55:55.629Z,1.30
2023-12-27T16:58:23.001Z,0.87
2023-12-27T17:00:49.955Z,1.43
2023-12-27T17:03:18.017Z,1.17
2023-12-27T17:05:47.511Z,0.97
2023-12-27T17:08:15.959Z,1.40
2023-12-27T17:10:42.636Z,1.23
2023-12-27T17:13:09.476Z,1.07
2023-12-27T17:15:36.111Z,1.57
2023-12-27T17:18:05.249Z,1.37
2023-12-27T17:20:32.318Z,1.10
2023-12-27T17:22:59.012Z,1.23
2023-12-27T17:25:28.376Z,1.20
2023-12-27T17:27:56.653Z,1.20
2023-12-27T17:30:23.907Z,1.13
2023-12-27T17:32:50.646Z,1.33
2023-12-27T17:35:17.454Z,1.20
2023-12-27T17:37:44.099Z,1.10
2023-12-27T17:40:10.987Z,1.03
2023-12-27T17:42:38.466Z,1.47
2023-12-27T17:45:06.895Z,1.20
2023-12-27T17:47:33.853Z,1.83
2023-12-27T17:50:01.469Z,1.10
2023-12-27T17:52:29.908Z,1.50
2023-12-27T17:54:59.874Z,1.30
2023-12-27T17:57:26.878Z,1.40
2023-12-27T17:59:53.763Z,1.67
2023-12-27T18:02:20.400Z,1.20
2023-12-27T18:04:48.657Z,1.23
2023-12-27T18:07:15.605Z,1.03
2023-12-27T18:09:43.153Z,1.17
2023-12-27T18:12:10.512Z,1.20
2023-12-27T18:14:39.327Z,1.83
2023-12-27T18:17:09.695Z,1.40
2023-12-27T18:19:40.031Z,1.40
2023-12-27T18:22:07.475Z,1.37
2023-12-27T18:24:38.062Z,1.40
2023-12-27T18:27:08.578Z,1.37
2023-12-27T18:29:39.685Z,1.50
2023-12-27T18:32:09.605Z,1.10
2023-12-27T18:34:42.741Z,1.30
2023-12-27T18:37:09.823Z,1.43
2023-12-27T18:39:37.924Z,1.40
2023-12-27T18:42:05.174Z,1.37
2023-12-27T18:44:33.229Z,1.83
2023-12-27T18:46:59.974Z,1.27
2023-12-27T18:49:26.948Z,1.37
2023-12-27T18:51:53.878Z,1.37
2023-12-27T18:54:20.694Z,1.50
2023-12-27T18:56:47.745Z,1.27
2023-12-27T18:59:14.392Z,1.40
2023-12-27T19:01:42.064Z,1.50
2023-12-27T19:04:08.876Z,1.30
2023-12-27T19:06:36.309Z,1.33
2023-12-27T19:09:02.978Z,1.43
2023-12-27T19:11:30.794Z,1.43
2023-12-27T19:13:58.844Z,1.50
2023-12-27T19:16:29.240Z,1.40
2023-12-27T19:18:59.349Z,1.40
2023-12-27T19:21:27.004Z,1.20
2023-12-27T19:23:56.906Z,1.37
2023-12-27T19:26:25.088Z,1.13
2023-12-27T19:28:51.791Z,1.67
2023-12-27T19:31:18.858Z,1.20
2023-12-27T19:33:45.719Z,1.23
2023-12-27T19:36:12.613Z,1.30
2023-12-27T19:38:39.510Z,1.60
2023-12-27T19:41:07.134Z,1.40
2023-12-27T19:43:34.764Z,1.50
2023-12-27T19:46:01.742Z,1.20
2023-12-27T19:48:29.492Z,1.10
2023-12-27T19:50:57.001Z,1.63
2023-12-27T19:53:24.147Z,1.20
2023-12-27T19:55:51.517Z,1.30
2023-12-27T19:58:19.352Z,1.80
2023-12-27T20:00:47.103Z,1.50
2023-12-27T20:03:14.248Z,1.30
2023-12-27T20:05:41.079Z,1.30
2023-12-27T20:08:08.345Z,1.10
2023-12-27T20:10:35.612Z,1.20
2023-12-27T20:13:05.153Z,1.57
2023-12-27T20:15:47.764Z,1.10
2023-12-27T20:18:17.221Z,1.40
2023-12-27T20:20:44.755Z,1.30
2023-12-27T20:23:12.500Z,1.40
2023-12-27T20:25:40.329Z,1.40
2023-12-27T20:28:08.581Z,1.20
2023-12-27T20:30:35.969Z,1.67
2023-12-27T20:33:03.161Z,1.53
2023-12-27T20:35:30.032Z,1.40
2023-12-27T20:37:56.937Z,2.03
2023-12-27T20:40:24.037Z,1.57
2023-12-27T20:42:52.446Z,1.70
2023-12-27T20:45:20.590Z,1.80
2023-12-27T20:47:47.959Z,1.33
2023-12-27T20:50:14.931Z,1.10
2023-12-27T20:52:41.788Z,1.50
2023-12-27T20:55:09.880Z,1.50
2023-12-27T20:57:36.875Z,1.60
2023-12-27T21:00:05.893Z,2.10
2023-12-27T21:02:32.617Z,1.87
2023-12-27T21:04:59.293Z,1.40
2023-12-27T21:07:28.314Z,1.70
2023-12-27T21:09:55.304Z,1.57
2023-12-27T21:12:22.111Z,1.50
2023-12-27T21:14:48.760Z,1.40
2023-12-27T21:17:15.410Z,1.47
2023-12-27T21:19:43.226Z,1.43
2023-12-27T21:22:10.276Z,1.70
2023-12-27T21:24:36.992Z,1.40
2023-12-27T21:27:04.141Z,1.80
2023-12-27T21:29:31.265Z,1.57
2023-12-27T21:31:57.989Z,2.30
2023-12-27T21:34:24.801Z,2.17
2023-12-27T21:36:52.502Z,1.57
2023-12-27T21:39:19.172Z,1.37
2023-12-27T21:41:45.989Z,1.70
2023-12-27T21:44:12.773Z,2.10
2023-12-27T21:46:40.699Z,1.60
2023-12-27T21:49:07.596Z,1.87
2023-12-27T21:51:34.512Z,1.37
2023-12-27T21:54:01.270Z,1.80
2023-12-27T21:56:29.874Z,1.77
2023-12-27T21:59:02.660Z,1.70
2023-12-27T22:01:35.602Z,2.20
2023-12-27T22:04:04.553Z,2.37
2023-12-27T22:06:31.475Z,1.67
2023-12-27T22:08:58.699Z,1.90
2023-12-27T22:11:25.428Z,1.80
2023-12-27T22:13:52.032Z,1.60
2023-12-27T22:16:19.039Z,2.07
2023-12-27T22:18:47.382Z,1.90
2023-12-27T22:21:19.552Z,1.97
2023-12-27T22:23:47.361Z,1.90
2023-12-27T22:26:14.983Z,1.70
2023-12-27T22:28:42.444Z,2.10
2023-12-27T22:31:09.776Z,1.90
2023-12-27T22:33:37.078Z,2.30
2023-12-27T22:36:07.323Z,2.13
2023-12-27T22:38:34.071Z,2.10
2023-12-27T22:41:00.696Z,2.00
2023-12-27T22:43:27.280Z,1.50
2023-12-27T22:45:54.021Z,1.70
2023-12-27T22:48:21.202Z,2.33
2023-12-27T22:50:48.584Z,1.83
2023-12-27T22:53:15.280Z,2.40
2023-12-27T22:55:43.565Z,1.70
2023-12-27T22:58:10.224Z,2.47
2023-12-27T23:00:36.939Z,1.60
2023-12-27T23:03:03.791Z,2.30
2023-12-27T23:05:31.097Z,2.03
2023-12-27T23:07:58.047Z,2.57
2023-12-27T23:10:24.994Z,1.97
2023-12-27T23:12:51.894Z,2.10
2023-12-27T23:15:18.697Z,2.00
2023-12-27T23:17:45.476Z,1.67
2023-12-27T23:20:12.541Z,2.13
2023-12-27T23:22:39.299Z,1.80
2023-12-27T23:25:07.899Z,1.80
2023-12-27T23:27:35.181Z,2.10
2023-12-27T23:30:01.988Z,2.00
2023-12-27T23:32:37.889Z,1.60
2023-12-27T23:35:12.283Z,1.83
2023-12-27T23:37:41.123Z,2.00
2023-12-27T23:40:08.909Z,1.60
2023-12-27T23:42:35.528Z,1.87
2023-12-27T23:45:02.161Z,2.13
2023-12-27T23:47:29.061Z,2.10
2023-12-27T23:49:55.901Z,1.70
2023-12-27T23:52:22.590Z,1.60
2023-12-27T23:54:49.337Z,2.10
2023-12-27T23:57:16.566Z,2.00
2023-12-27T23:59:43.294Z,2.07
